avis per tempestes more information blitzortung!


avis per Pluja more information rain snow radar


Visita la nostra xarxa de llocs de meteo:

Template documentation
and downloads

And another site



Thunderstorms From: 18-09-2018 20:00 Until: 19-09-2018 10:59 warning for: Thunderstorms Level: Yellow info button
Rain From: 18-09-2018 20:00 Until: 19-09-2018 10:59 warning for: Rain Level: Yellow info button

Pagina Historial Weather Underground text

Diari Resum Octubre 5, 2017 Unitats:  Mètric    Imperial   Tant
« Previous Dia
SegĂźent Dia »
Diari Setmana Mensual Anual Personalitzada
  Maxima: Minima: Media:
Temperatura: -17.8 °C -9.6 °C -5.3 °C
Punt de rosada: -17.8 °C -10.4 °C -8.5 °C
Humitat: Humidity % 51 % 71 %
Wind Speed: 0 km/h 0 km/h 9.7 km/h
RĂ fegues de vent: 0 km/h - -
Vent:- - SW
Pression baro: 0 hPa 34428.8 hPa -
Precipitacions: 0 mm    
Historical Graphs
 
 
Dades de taula per Octubre 5, 2017
Temps Temperatura Punt de rosada Pression baro Vent Wind Speed RĂ fegues de vent Humitat Rainfall Rate (Hourly)
-17.8 °C -17.8 °C 0 hPa Calm     Humidity % 0 mm
00:00 -8.3 °C -9.5 °C 34601.5 hPa Calm     87 % 0 mm
00:04 -7 °C -8.3 °C 34703.1 hPa Calm     86 % 0 mm
00:10 -8.3 °C -9.6 °C 34601.5 hPa WNW 2.6 km/h 2.6 km/h 87 % 0 mm
00:30 -8.5 °C -9.6 °C 34635.4 hPa Calm     88 % 0 mm
01:00 -8.8 °C -9.9 °C 34601.5 hPa Calm     88 % 0 mm
01:10 -8.9 °C -9.9 °C 34601.5 hPa Calm     89 % 0 mm
01:20 -9 °C -10 °C 34601.5 hPa Calm     89 % 0 mm
01:30 -9 °C -10 °C 34601.5 hPa Calm     89 % 0 mm
01:40 -9.1 °C -10.1 °C 34601.5 hPa NW 2.6 km/h 5.1 km/h 89 % 0 mm
01:50 -9.2 °C -10.1 °C 34601.5 hPa Calm     90 % 0 mm
02:00 -9.3 °C -10.3 °C 34601.5 hPa Calm     89 % 0 mm
02:10 -9.4 °C -10.3 °C 34601.5 hPa Calm     90 % 0 mm
02:20 -9.4 °C -10.3 °C 34601.5 hPa Calm     90 % 0 mm
02:50 -9.4 °C -10.3 °C 34601.5 hPa Calm     90 % 0 mm
03:00 -9.5 °C -10.3 °C 34601.5 hPa Calm     91 % 0 mm
03:10 -9.6 °C -10.4 °C 34601.5 hPa Calm     91 % 0 mm
03:20 -9.5 °C -10.3 °C 34601.5 hPa Calm     91 % 0 mm
03:30 -9.5 °C -10.2 °C 34601.5 hPa Calm     92 % 0 mm
03:40 -9.1 °C -9.8 °C 34601.5 hPa Calm     93 % 0 mm
03:50 -9.1 °C -9.8 °C 34567.7 hPa Calm   2.6 km/h 92 % 0 mm
04:00 -9.2 °C -10.1 °C 34601.5 hPa South 2.6 km/h 5.1 km/h 91 % 0 mm
04:10 -9.1 °C -9.9 °C 34601.5 hPa SW 2.6 km/h 5.1 km/h 91 % 0 mm
04:20 -8.6 °C -9.3 °C 34601.5 hPa Calm     92 % 0 mm
04:40 -8.1 °C -9.2 °C 34601.5 hPa South 2.6 km/h 5.1 km/h 88 % 0 mm
04:50 -7.6 °C -8.8 °C 34601.5 hPa SSW 2.6 km/h 5.1 km/h 87 % 0 mm
05:00 -7.2 °C -8.8 °C 34601.5 hPa SSE 2.6 km/h 5.1 km/h 84 % 0 mm
05:10 -6.8 °C -8.4 °C 34601.5 hPa SSE 2.6 km/h 5.1 km/h 83 % 0 mm
05:20 -6.3 °C -8.3 °C 34601.5 hPa SE 2.6 km/h 5.1 km/h 80 % 0 mm
05:30 -6 °C -8.2 °C 34567.7 hPa ESE 2.6 km/h 7.7 km/h 78 % 0 mm
05:40 -5.7 °C -8 °C 34567.7 hPa SSE 2.6 km/h 5.1 km/h 77 % 0 mm
05:45 -5.6 °C -7.9 °C 34567.7 hPa Calm   5.1 km/h 77 % 0 mm
10:45 -5.4 °C -7.7 °C 34601.5 hPa South 8.5 km/h 8.5 km/h 77 % 0 mm
10:50 -5.4 °C -7.8 °C 34601.5 hPa WSW 3.1 km/h 3.1 km/h 76 % 0 mm
10:55 -5.2 °C -7.7 °C 34601.5 hPa SSE 6 km/h 6 km/h 75 % 0 mm
11:00 -5 °C -7.7 °C 34601.5 hPa SW 6.3 km/h 6.3 km/h 74 % 0 mm
11:05 -5.2 °C -7.9 °C 34601.5 hPa South 11.9 km/h 11.9 km/h 74 % 0 mm
11:10 -5 °C -7.8 °C 34601.5 hPa SW 11.9 km/h 11.9 km/h 73 % 0 mm
11:15 -5.2 °C -8.1 °C 34601.5 hPa SW 9 km/h 9 km/h 73 % 0 mm
11:20 -5 °C -7.9 °C 34601.5 hPa West 6 km/h 6 km/h 72 % 0 mm
11:25 -5 °C -7.9 °C 34601.5 hPa ESE 4.2 km/h 4.2 km/h 72 % 0 mm
11:30 -4.6 °C -7.7 °C 34601.5 hPa SW 6 km/h 6 km/h 71 % 0 mm
11:35 -4.5 °C -7.6 °C 34601.5 hPa SW 15 km/h 15 km/h 71 % 0 mm
11:40 -4.6 °C -7.8 °C 34601.5 hPa WSW 6 km/h 6.3 km/h 70 % 0 mm
11:45 -4.4 °C -7.9 °C 34601.5 hPa West 9.8 km/h 9.8 km/h 68 % 0 mm
11:50 -4.4 °C -7.9 °C 34601.5 hPa WSW 15 km/h 15 km/h 68 % 0 mm
11:55 -4.4 °C -7.9 °C 34601.5 hPa SW 15 km/h 15 km/h 68 % 0 mm
12:00 -4.1 °C -7.7 °C 34601.5 hPa WNW 11.9 km/h 11.9 km/h 67 % 0 mm
12:05 -4.1 °C -7.7 °C 34601.5 hPa SSW 11.9 km/h 11.9 km/h 67 % 0 mm
12:10 -3.9 °C -7.9 °C 34601.5 hPa SSW 6 km/h 6 km/h 64 % 0 mm
12:15 -3.9 °C -7.8 °C 34601.5 hPa NW 8.5 km/h 8.5 km/h 65 % 0 mm
12:20 -3.7 °C -7.8 °C 34601.5 hPa South 6 km/h 8.5 km/h 64 % 0 mm
12:25 -3.8 °C -7.9 °C 34601.5 hPa WSW 15 km/h 15 km/h 63 % 0 mm
12:30 -3.8 °C -7.9 °C 34601.5 hPa SW 15 km/h 15 km/h 63 % 0 mm
12:35 -3.7 °C -8.1 °C 34601.5 hPa West 15 km/h 15 km/h 62 % 0 mm
12:50 -3.2 °C -7.7 °C 34567.7 hPa SSE 12.2 km/h 12.2 km/h 61 % 0 mm
12:55 -3.2 °C -8 °C 34567.7 hPa West 11.9 km/h 11.9 km/h 59 % 0 mm
13:00 -2.9 °C -7.9 °C 34567.7 hPa South 11.1 km/h 11.1 km/h 58 % 0 mm
13:05 -3.2 °C -8.2 °C 34567.7 hPa WSW 19.6 km/h 19.6 km/h 58 % 0 mm
13:10 -3.1 °C -7.9 °C 34567.7 hPa West 15.6 km/h 15.6 km/h 59 % 0 mm
13:15 -2.9 °C -7.9 °C 34533.8 hPa WSW 6 km/h 6 km/h 58 % 0 mm
13:20 -2.7 °C -8 °C 34533.8 hPa WSW 9.8 km/h 9.8 km/h 56 % 0 mm
13:25 -2.7 °C -7.9 °C 34533.8 hPa SW 17.9 km/h 17.9 km/h 56 % 0 mm
13:26 -2.7 °C -7.9 °C 34533.8 hPa SW 9 km/h 9 km/h 56 % 0 mm
13:36 -2.7 °C -8.3 °C 34533.8 hPa ESE 6 km/h 6 km/h 54 % 0 mm
13:41 -2.6 °C -8.2 °C 34533.8 hPa SW 15.3 km/h 15.3 km/h 54 % 0 mm
13:46 -2.7 °C -8.3 °C 34533.8 hPa SSW 15 km/h 15 km/h 54 % 0 mm
13:51 -2.4 °C -8.2 °C 34533.8 hPa South 9 km/h 9 km/h 53 % 0 mm
13:56 -2.2 °C -8.1 °C 34533.8 hPa South 15 km/h 15 km/h 53 % 0 mm
14:01 -2.4 °C -8.4 °C 34533.8 hPa West 17.9 km/h 17.9 km/h 52 % 0 mm
14:06 -2.3 °C -8.3 °C 34533.8 hPa WSW 6 km/h 6 km/h 52 % 0 mm
14:08 -2.1 °C -8.1 °C 34533.8 hPa SW 14.5 km/h 14.5 km/h 52 % 0 mm
14:13 -2.2 °C -8.2 °C 34533.8 hPa SSW 9 km/h 9 km/h 52 % 0 mm
14:18 -2.1 °C -8.2 °C 34533.8 hPa South 9 km/h 9 km/h 51 % 0 mm
14:23 -2.2 °C -8.3 °C 34533.8 hPa SSW 15 km/h 15 km/h 51 % 0 mm
14:28 -2.1 °C -8.3 °C 34533.8 hPa SSE 23.8 km/h 23.8 km/h 51 % 0 mm
14:33 -2.3 °C -8.3 °C 34533.8 hPa SSE 26.9 km/h 26.9 km/h 52 % 0 mm
14:38 -2.1 °C -8.1 °C 34533.8 hPa SSW 20.9 km/h 20.9 km/h 52 % 0 mm
14:43 -2.3 °C -8.3 °C 34533.8 hPa SSW 11.9 km/h 11.9 km/h 52 % 0 mm
14:48 -2 °C -8 °C 34496.6 hPa SW 17.9 km/h 17.9 km/h 52 % 0 mm
14:53 -2.1 °C -8.1 °C 34496.6 hPa West 15 km/h 15 km/h 52 % 0 mm
14:58 -2.1 °C -8.1 °C 34496.6 hPa SW 15.3 km/h 15.3 km/h 52 % 0 mm
15:03 -1.9 °C -7.9 °C 34496.6 hPa WSW 11.9 km/h 11.9 km/h 52 % 0 mm
15:08 -2 °C -8.2 °C 34496.6 hPa SW 17.9 km/h 17.9 km/h 51 % 0 mm
15:13 -2 °C -8.2 °C 34496.6 hPa West 17.9 km/h 17.9 km/h 51 % 0 mm
15:18 -2 °C -8.2 °C 34496.6 hPa WSW 19.2 km/h 19.2 km/h 51 % 0 mm
15:23 -1.9 °C -8.1 °C 34496.6 hPa SW 20.9 km/h 20.9 km/h 51 % 0 mm
15:28 -1.9 °C -8.1 °C 34496.6 hPa SW 11.9 km/h 11.9 km/h 51 % 0 mm
15:33 -2.1 °C -8.2 °C 34496.6 hPa SW 20.9 km/h 20.9 km/h 51 % 0 mm
15:38 -1.9 °C -7.9 °C 34496.6 hPa South 11.9 km/h 11.9 km/h 52 % 0 mm
15:43 -1.9 °C -8.1 °C 34496.6 hPa WSW 17.9 km/h 17.9 km/h 51 % 0 mm
15:48 -2.2 °C -8.4 °C 34496.6 hPa SW 20.9 km/h 20.9 km/h 51 % 0 mm
15:58 -2.1 °C -8.2 °C 34496.6 hPa SW 11.9 km/h 11.9 km/h 51 % 0 mm
16:08 -2.2 °C -8.2 °C 34496.6 hPa WSW 23.8 km/h 23.8 km/h 52 % 0 mm
16:13 -2.3 °C -8.3 °C 34496.6 hPa SW 15 km/h 15 km/h 52 % 0 mm
16:18 -2.3 °C -8.3 °C 34496.6 hPa SSW 22.5 km/h 22.5 km/h 52 % 0 mm
16:23 -2.3 °C -8.3 °C 34496.6 hPa SW 23.8 km/h 23.8 km/h 52 % 0 mm
16:28 -2.5 °C -8.4 °C 34496.6 hPa SSW 29.8 km/h 29.8 km/h 52 % 0 mm
16:33 -2.5 °C -8.3 °C 34496.6 hPa WSW 15.6 km/h 15.6 km/h 53 % 0 mm
16:38 -2.4 °C -8.2 °C 34496.6 hPa South 11.9 km/h 11.9 km/h 53 % 0 mm
16:43 -2.7 °C -8.5 °C 34496.6 hPa SW 26.9 km/h 26.9 km/h 53 % 0 mm
16:48 -2.6 °C -8.2 °C 34496.6 hPa SW 19.2 km/h 19.2 km/h 54 % 0 mm
16:49 -2.6 °C -8.2 °C 34496.6 hPa SSW 17.9 km/h 17.9 km/h 54 % 0 mm
16:54 -2.8 °C -8.4 °C 34496.6 hPa SSW 20.9 km/h 20.9 km/h 54 % 0 mm
16:59 -2.8 °C -8.4 °C 34496.6 hPa SSE 17.9 km/h 17.9 km/h 54 % 0 mm
17:04 -2.8 °C -8.4 °C 34496.6 hPa West 20.9 km/h 20.9 km/h 54 % 0 mm
17:14 -2.8 °C -8.1 °C 34496.6 hPa SW 17.9 km/h 17.9 km/h 56 % 0 mm
17:19 -3 °C -8.3 °C 34496.6 hPa West 20.9 km/h 20.9 km/h 56 % 0 mm
17:24 -3 °C -8.3 °C 34496.6 hPa West 26.9 km/h 26.9 km/h 56 % 0 mm
17:29 -3 °C -8.3 °C 34462.7 hPa SW 15.6 km/h 15.6 km/h 56 % 0 mm
17:34 -3 °C -8.3 °C 34462.7 hPa WSW 15 km/h 15 km/h 56 % 0 mm
17:39 -3.1 °C -8.2 °C 34462.7 hPa WSW 20.9 km/h 20.9 km/h 57 % 0 mm
17:44 -3.1 °C -8.2 °C 34462.7 hPa SW 23.8 km/h 23.8 km/h 57 % 0 mm
17:49 -3.2 °C -8.3 °C 34462.7 hPa WSW 20.9 km/h 20.9 km/h 57 % 0 mm
17:54 -3.3 °C -8.2 °C 34462.7 hPa SW 17.9 km/h 17.9 km/h 58 % 0 mm
17:59 -3.3 °C -8.2 °C 34462.7 hPa SSW 15 km/h 15 km/h 58 % 0 mm
18:04 -3.3 °C -8.3 °C 34462.7 hPa SSW 11.9 km/h 11.9 km/h 58 % 0 mm
18:09 -3.5 °C -8.3 °C 34462.7 hPa SW 17.9 km/h 17.9 km/h 59 % 0 mm
18:14 -3.6 °C -8.3 °C 34462.7 hPa West 17.9 km/h 17.9 km/h 59 % 0 mm
18:19 -3.5 °C -8.3 °C 34462.7 hPa SW 12.7 km/h 12.7 km/h 59 % 0 mm
18:24 -3.6 °C -8.4 °C 34462.7 hPa SSW 15.3 km/h 15.3 km/h 59 % 0 mm
18:29 -3.8 °C -8.4 °C 34462.7 hPa WSW 17.9 km/h 17.9 km/h 60 % 0 mm
18:34 -3.8 °C -8.4 °C 34462.7 hPa SW 11.9 km/h 11.9 km/h 60 % 0 mm
18:39 -3.9 °C -8.5 °C 34462.7 hPa West 15 km/h 15 km/h 60 % 0 mm
18:44 -3.9 °C -8.3 °C 34428.8 hPa SW 15 km/h 15 km/h 62 % 0 mm
18:49 -4.1 °C -8.4 °C 34428.8 hPa SW 14 km/h 14 km/h 62 % 0 mm
18:54 -4.2 °C -8.4 °C 34428.8 hPa SSW 15 km/h 15 km/h 63 % 0 mm
18:59 -4.3 °C -8.4 °C 34462.7 hPa SW 15 km/h 15 km/h 63 % 0 mm
19:04 -4.4 °C -8.6 °C 34462.7 hPa WSW 15 km/h 15 km/h 63 % 0 mm
19:09 -4.6 °C -8.4 °C 34462.7 hPa SW 15 km/h 15 km/h 65 % 0 mm
19:14 -4.7 °C -8.6 °C 34462.7 hPa SW 15 km/h 15 km/h 65 % 0 mm
19:19 -4.8 °C -8.5 °C 34462.7 hPa SW 15 km/h 15 km/h 66 % 0 mm
19:20 -6.8 °C -8.2 °C 34462.7 hPa WSW 2.6 km/h 5.1 km/h 85 % 0 mm
19:24 -4.9 °C -8.6 °C 34462.7 hPa WSW 6.3 km/h 9.3 km/h 66 % 0 mm
19:29 -5 °C -8.6 °C 34462.7 hPa SW 15 km/h 15 km/h 67 % 0 mm
19:30 -6.8 °C -8.2 °C 34462.7 hPa WSW 2.6 km/h 2.6 km/h 86 % 0 mm
19:34 -5.1 °C -8.6 °C 34462.7 hPa SW 15 km/h 15 km/h 68 % 0 mm
19:39 -5.2 °C -8.7 °C 34462.7 hPa West 15 km/h 15 km/h 68 % 0 mm
19:40 -6.9 °C -8.3 °C 34462.7 hPa Calm     86 % 0 mm
19:44 -5.3 °C -8.6 °C 34496.6 hPa South 15 km/h 15 km/h 69 % 0 mm
19:49 -5.4 °C -8.6 °C 34496.6 hPa SSW 9 km/h 9 km/h 70 % 0 mm
19:50 -7.1 °C -8.4 °C 34462.7 hPa Calm   5.1 km/h 86 % 0 mm
19:54 -5.5 °C -8.7 °C 34496.6 hPa SW 15 km/h 15 km/h 70 % 0 mm
19:59 -5.6 °C -8.6 °C 34462.7 hPa SW 17.9 km/h 17.9 km/h 71 % 0 mm
20:00 -7.2 °C -8.5 °C 34462.7 hPa Calm   2.6 km/h 86 % 0 mm
20:04 -5.7 °C -8.5 °C 34462.7 hPa SSW 16.1 km/h 16.1 km/h 73 % 0 mm
20:09 -5.8 °C -8.6 °C 34462.7 hPa WSW 23.8 km/h 23.8 km/h 73 % 0 mm
20:10 -7.2 °C -8.4 °C 34462.7 hPa Calm   2.6 km/h 87 % 0 mm
20:14 -5.8 °C -8.7 °C 34496.6 hPa WSW 17.9 km/h 17.9 km/h 73 % 0 mm
20:19 -5.9 °C -8.6 °C 34496.6 hPa WSW 15 km/h 15 km/h 74 % 0 mm
20:20 -7.2 °C -8.4 °C 34462.7 hPa Calm     87 % 0 mm
20:24 -5.9 °C -8.6 °C 34496.6 hPa WSW 11.9 km/h 11.9 km/h 74 % 0 mm
20:29 -6 °C -8.6 °C 34496.6 hPa SW 12.2 km/h 12.2 km/h 75 % 0 mm
20:30 -7.1 °C -8.2 °C 34462.7 hPa Calm   2.6 km/h 88 % 0 mm
20:34 -6 °C -8.6 °C 34496.6 hPa SW 15 km/h 15 km/h 75 % 0 mm
20:39 -6.1 °C -8.6 °C 34496.6 hPa SW 15 km/h 15 km/h 75 % 0 mm
20:40 -7.1 °C -8.2 °C 34462.7 hPa Calm   2.6 km/h 88 % 0 mm
20:44 -6.1 °C -8.7 °C 34496.6 hPa SW 9 km/h 9 km/h 75 % 0 mm
20:49 -6.1 °C -8.6 °C 34496.6 hPa WSW 6 km/h 6 km/h 76 % 0 mm
20:50 -7.1 °C -8.2 °C 34462.7 hPa Calm   2.6 km/h 88 % 0 mm
20:54 -6.2 °C -8.5 °C 34496.6 hPa WSW 6 km/h 6 km/h 77 % 0 mm
20:59 -6.2 °C -8.6 °C 34496.6 hPa West 9 km/h 9 km/h 77 % 0 mm
21:00 -7.1 °C -8.2 °C 34462.7 hPa Calm     88 % 0 mm
21:04 -6.2 °C -8.6 °C 34496.6 hPa WSW 9 km/h 9 km/h 77 % 0 mm
21:09 -6.2 °C -8.6 °C 34496.6 hPa WSW 10.3 km/h 10.3 km/h 77 % 0 mm
21:10 -7.1 °C -8.2 °C 34462.7 hPa Calm   5.1 km/h 88 % 0 mm
21:14 -6.3 °C -8.5 °C 34496.6 hPa WSW 6.3 km/h 6.3 km/h 78 % 0 mm
21:19 -6.3 °C -8.6 °C 34496.6 hPa West 9 km/h 9 km/h 78 % 0 mm
21:20 -7.2 °C -8.3 °C 34462.7 hPa Calm   7.7 km/h 88 % 0 mm
21:24 -6.3 °C -8.6 °C 34496.6 hPa SW 9 km/h 9 km/h 78 % 0 mm
21:29 -6.4 °C -8.6 °C 34496.6 hPa West 9 km/h 9 km/h 78 % 0 mm
21:30 -7.2 °C -8.3 °C 34462.7 hPa Calm   2.6 km/h 88 % 0 mm
21:34 -6.4 °C -8.5 °C 34496.6 hPa WSW 7.6 km/h 7.6 km/h 79 % 0 mm
21:39 -6.4 °C -8.6 °C 34496.6 hPa SW 11.9 km/h 11.9 km/h 79 % 0 mm
21:40 -7.2 °C -8.3 °C 34462.7 hPa Calm   2.6 km/h 88 % 0 mm
21:44 -6.4 °C -8.6 °C 34496.6 hPa SW 11.9 km/h 11.9 km/h 79 % 0 mm
21:49 -6.4 °C -8.4 °C 34496.6 hPa West 9.3 km/h 9.3 km/h 80 % 0 mm
21:50 -7.2 °C -8.3 °C 34428.8 hPa NNW 2.6 km/h 5.1 km/h 88 % 0 mm
21:54 -6.5 °C -8.5 °C 34496.6 hPa WSW 11.9 km/h 11.9 km/h 80 % 0 mm
21:59 -6.5 °C -8.5 °C 34496.6 hPa SW 11.9 km/h 11.9 km/h 80 % 0 mm
22:00 -7.2 °C -8.3 °C 34462.7 hPa Calm   7.7 km/h 88 % 0 mm
22:04 -6.5 °C -8.5 °C 34496.6 hPa WSW 11.9 km/h 11.9 km/h 80 % 0 mm
22:09 -6.6 °C -8.4 °C 34496.6 hPa WSW 9 km/h 9 km/h 81 % 0 mm
22:10 -7.2 °C -8.3 °C 34462.7 hPa Calm   5.1 km/h 88 % 0 mm
22:14 -6.6 °C -8.4 °C 34496.6 hPa WSW 6 km/h 6 km/h 81 % 0 mm
22:19 -6.6 °C -8.4 °C 34496.6 hPa SW 15 km/h 15 km/h 81 % 0 mm
22:20 -7.2 °C -8.3 °C 34428.8 hPa Calm   2.6 km/h 88 % 0 mm
22:24 -6.6 °C -8.3 °C 34496.6 hPa West 3.1 km/h   82 % 0 mm
22:29 -6.6 °C -8.4 °C 34496.6 hPa WSW 6 km/h 6 km/h 82 % 0 mm
22:30 -7.2 °C -8.4 °C 34462.7 hPa NNW 2.6 km/h 5.1 km/h 88 % 0 mm
22:34 -6.6 °C -8.4 °C 34496.6 hPa SW 6 km/h   82 % 0 mm
22:39 -6.6 °C -8.4 °C 34496.6 hPa WSW 3.1 km/h 3.1 km/h 82 % 0 mm
22:40 -7.2 °C -8.4 °C 34462.7 hPa Calm   5.1 km/h 88 % 0 mm
22:49 -6.7 °C -8.4 °C 34496.6 hPa West 11.9 km/h 11.9 km/h 82 % 0 mm
22:50 -7.2 °C -8.4 °C 34462.7 hPa NW 2.6 km/h 2.6 km/h 88 % 0 mm
22:54 -6.7 °C -8.4 °C 34496.6 hPa West 6 km/h 6 km/h 82 % 0 mm
22:59 -6.7 °C -8.4 °C 34496.6 hPa WSW 6 km/h 6 km/h 82 % 0 mm
23:00 -7.2 °C -8.3 °C 34428.8 hPa Calm     88 % 0 mm
23:04 -6.7 °C -8.3 °C 34496.6 hPa SW 3.1 km/h 3.1 km/h 83 % 0 mm
23:09 -6.7 °C -8.3 °C 34496.6 hPa West 6 km/h 6 km/h 84 % 0 mm
23:10 -7.2 °C -8.3 °C 34428.8 hPa North 2.6 km/h 5.1 km/h 88 % 0 mm
23:14 -6.7 °C -8.3 °C 34496.6 hPa WSW 6.8 km/h 6.8 km/h 83 % 0 mm
23:19 -6.7 °C -8.3 °C 34496.6 hPa SW 9 km/h 9 km/h 84 % 0 mm
23:20 -7.2 °C -8.3 °C 34462.7 hPa North 2.6 km/h 5.1 km/h 88 % 0 mm
23:29 -6.8 °C -8.2 °C 34496.6 hPa SW 3.1 km/h 3.1 km/h 85 % 0 mm
23:30 -7.2 °C -8.4 °C 34428.8 hPa NNW 2.6 km/h 5.1 km/h 87 % 0 mm
23:34 -6.7 °C -8.2 °C 34496.6 hPa SW 3.1 km/h   85 % 0 mm
23:40 -7.3 °C -8.5 °C 34428.8 hPa NNW 5.1 km/h 7.7 km/h 87 % 0 mm
23:44 -6.7 °C -8.3 °C 34462.7 hPa West 6.8 km/h 6.8 km/h 84 % 0 mm
23:49 -6.7 °C -8.2 °C 34462.7 hPa West 9 km/h 9 km/h 85 % 0 mm
23:50 -7.4 °C -8.7 °C 34462.7 hPa NW 7.7 km/h 10.3 km/h 87 % 0 mm
23:59 -6.7 °C -8.2 °C 34496.6 hPa WNW 6 km/h 6 km/h 85 % 0 mm
Meteo Sesrovires
Elogis d' Weather Underground - 1.5 mb

Guio original per  Jim McMurry - jmcmurry@mwt.net Adaptat per a la plantilla per  Wim van der Kuil - Leuven-Template.eu

Trobareu la nostra informacio del temps tambe a:

Weather Underground

AWEKAS